sensor_id;sensor_type;location;lat;lon;timestamp;P1;durP1;ratioP1;P2;durP2;ratioP2
10497;SDS011;5296;51.060;13.750;2022-12-11T00:02:44;22.23;;;16.00;;
10497;SDS011;5296;51.060;13.750;2022-12-11T00:07:46;22.23;;;16.57;;
10497;SDS011;5296;51.060;13.750;2022-12-11T00:12:48;20.23;;;15.23;;
10497;SDS011;5296;51.060;13.750;2022-12-11T00:17:49;22.37;;;16.00;;
10497;SDS011;5296;51.060;13.750;2022-12-11T00:22:51;23.40;;;15.97;;
10497;SDS011;5296;51.060;13.750;2022-12-11T00:27:53;22.03;;;16.27;;
10497;SDS011;5296;51.060;13.750;2022-12-11T00:32:54;22.83;;;16.37;;
10497;SDS011;5296;51.060;13.750;2022-12-11T00:37:56;22.47;;;17.03;;
10497;SDS011;5296;51.060;13.750;2022-12-11T00:42:57;22.83;;;16.40;;
10497;SDS011;5296;51.060;13.750;2022-12-11T00:47:59;22.17;;;16.23;;
10497;SDS011;5296;51.060;13.750;2022-12-11T00:53:01;19.30;;;14.70;;
10497;SDS011;5296;51.060;13.750;2022-12-11T00:58:04;20.80;;;15.97;;
10497;SDS011;5296;51.060;13.750;2022-12-11T01:03:07;19.37;;;14.23;;
10497;SDS011;5296;51.060;13.750;2022-12-11T01:08:09;22.33;;;15.83;;
10497;SDS011;5296;51.060;13.750;2022-12-11T01:13:11;19.03;;;15.17;;
10497;SDS011;5296;51.060;13.750;2022-12-11T01:18:13;19.97;;;15.10;;
10497;SDS011;5296;51.060;13.750;2022-12-11T01:23:15;20.60;;;14.63;;
10497;SDS011;5296;51.060;13.750;2022-12-11T01:28:17;20.33;;;14.17;;
10497;SDS011;5296;51.060;13.750;2022-12-11T01:33:19;19.97;;;15.33;;
10497;SDS011;5296;51.060;13.750;2022-12-11T01:38:20;19.53;;;14.10;;
10497;SDS011;5296;51.060;13.750;2022-12-11T01:43:22;21.97;;;14.90;;
10497;SDS011;5296;51.060;13.750;2022-12-11T01:48:24;20.23;;;14.77;;
10497;SDS011;5296;51.060;13.750;2022-12-11T01:53:32;21.70;;;14.17;;
10497;SDS011;5296;51.060;13.750;2022-12-11T01:58:49;21.87;;;14.10;;
10497;SDS011;5296;51.060;13.750;2022-12-11T02:03:52;20.53;;;14.97;;
10497;SDS011;5296;51.060;13.750;2022-12-11T02:08:56;20.00;;;15.17;;
10497;SDS011;5296;51.060;13.750;2022-12-11T02:14:02;18.90;;;13.77;;
10497;SDS011;5296;51.060;13.750;2022-12-11T02:19:14;18.27;;;13.47;;
10497;SDS011;5296;51.060;13.750;2022-12-11T02:34:51;17.80;;;12.73;;
10497;SDS011;5296;51.060;13.750;2022-12-11T02:39:56;18.30;;;13.50;;
10497;SDS011;5296;51.060;13.750;2022-12-11T02:44:58;20.33;;;13.70;;
10497;SDS011;5296;51.060;13.750;2022-12-11T02:50:01;17.50;;;12.60;;
10497;SDS011;5296;51.060;13.750;2022-12-11T02:55:05;19.07;;;13.20;;
10497;SDS011;5296;51.060;13.750;2022-12-11T03:00:08;17.20;;;11.57;;
10497;SDS011;5296;51.060;13.750;2022-12-11T03:05:11;20.37;;;13.43;;
10497;SDS011;5296;51.060;13.750;2022-12-11T03:10:14;17.30;;;12.20;;
10497;SDS011;5296;51.060;13.750;2022-12-11T03:15:17;17.37;;;12.67;;
10497;SDS011;5296;51.060;13.750;2022-12-11T03:25:25;17.40;;;12.23;;
10497;SDS011;5296;51.060;13.750;2022-12-11T03:30:48;17.83;;;13.23;;
10497;SDS011;5296;51.060;13.750;2022-12-11T03:35:53;18.83;;;12.73;;
10497;SDS011;5296;51.060;13.750;2022-12-11T03:40:57;16.80;;;12.40;;
10497;SDS011;5296;51.060;13.750;2022-12-11T03:46:01;18.07;;;12.70;;
10497;SDS011;5296;51.060;13.750;2022-12-11T03:51:04;18.90;;;13.57;;
10497;SDS011;5296;51.060;13.750;2022-12-11T03:56:07;17.17;;;12.37;;
10497;SDS011;5296;51.060;13.750;2022-12-11T04:01:10;18.77;;;12.87;;
10497;SDS011;5296;51.060;13.750;2022-12-11T04:06:11;19.37;;;13.17;;
10497;SDS011;5296;51.060;13.750;2022-12-11T04:11:13;18.27;;;12.90;;
10497;SDS011;5296;51.060;13.750;2022-12-11T04:16:33;16.57;;;12.40;;
10497;SDS011;5296;51.060;13.750;2022-12-11T04:21:35;18.07;;;12.80;;
10497;SDS011;5296;51.060;13.750;2022-12-11T04:26:55;17.27;;;12.37;;
10497;SDS011;5296;51.060;13.750;2022-12-11T04:31:57;18.27;;;12.20;;
10497;SDS011;5296;51.060;13.750;2022-12-11T04:36:59;15.60;;;11.70;;
10497;SDS011;5296;51.060;13.750;2022-12-11T04:42:00;16.27;;;11.40;;
10497;SDS011;5296;51.060;13.750;2022-12-11T04:47:02;16.60;;;10.93;;
10497;SDS011;5296;51.060;13.750;2022-12-11T04:52:03;16.57;;;10.87;;
10497;SDS011;5296;51.060;13.750;2022-12-11T04:57:05;13.93;;;10.73;;
10497;SDS011;5296;51.060;13.750;2022-12-11T05:02:07;16.13;;;10.73;;
10497;SDS011;5296;51.060;13.750;2022-12-11T05:07:09;17.03;;;12.47;;
10497;SDS011;5296;51.060;13.750;2022-12-11T05:12:10;17.57;;;12.00;;
10497;SDS011;5296;51.060;13.750;2022-12-11T05:17:12;16.47;;;12.67;;
10497;SDS011;5296;51.060;13.750;2022-12-11T05:22:15;18.90;;;13.67;;
10497;SDS011;5296;51.060;13.750;2022-12-11T05:27:17;19.87;;;13.07;;
10497;SDS011;5296;51.060;13.750;2022-12-11T05:32:19;17.70;;;13.07;;
10497;SDS011;5296;51.060;13.750;2022-12-11T05:37:20;19.83;;;13.53;;
10497;SDS011;5296;51.060;13.750;2022-12-11T05:42:22;18.73;;;12.60;;
10497;SDS011;5296;51.060;13.750;2022-12-11T05:47:29;17.03;;;11.47;;
10497;SDS011;5296;51.060;13.750;2022-12-11T05:52:31;16.27;;;12.63;;
10497;SDS011;5296;51.060;13.750;2022-12-11T05:57:33;14.00;;;10.83;;
10497;SDS011;5296;51.060;13.750;2022-12-11T06:02:35;14.07;;;10.77;;
10497;SDS011;5296;51.060;13.750;2022-12-11T06:07:37;13.03;;;10.40;;
10497;SDS011;5296;51.060;13.750;2022-12-11T06:12:38;14.03;;;10.83;;
10497;SDS011;5296;51.060;13.750;2022-12-11T06:17:41;12.93;;;9.90;;
10497;SDS011;5296;51.060;13.750;2022-12-11T06:22:42;11.90;;;9.47;;
10497;SDS011;5296;51.060;13.750;2022-12-11T06:27:44;11.30;;;9.17;;
10497;SDS011;5296;51.060;13.750;2022-12-11T06:32:45;11.90;;;9.07;;
10497;SDS011;5296;51.060;13.750;2022-12-11T06:37:47;10.13;;;8.37;;
10497;SDS011;5296;51.060;13.750;2022-12-11T06:42:49;12.40;;;9.00;;
10497;SDS011;5296;51.060;13.750;2022-12-11T06:47:50;11.10;;;8.60;;
10497;SDS011;5296;51.060;13.750;2022-12-11T06:52:52;10.17;;;8.00;;
10497;SDS011;5296;51.060;13.750;2022-12-11T06:57:53;10.67;;;8.47;;
10497;SDS011;5296;51.060;13.750;2022-12-11T07:02:55;10.43;;;8.57;;
10497;SDS011;5296;51.060;13.750;2022-12-11T07:07:57;10.90;;;8.37;;
10497;SDS011;5296;51.060;13.750;2022-12-11T07:12:58;11.83;;;8.37;;
10497;SDS011;5296;51.060;13.750;2022-12-11T07:18:00;11.53;;;8.33;;
10497;SDS011;5296;51.060;13.750;2022-12-11T07:23:01;10.80;;;8.20;;
10497;SDS011;5296;51.060;13.750;2022-12-11T07:28:03;11.40;;;8.27;;
10497;SDS011;5296;51.060;13.750;2022-12-11T07:33:05;10.80;;;8.07;;
10497;SDS011;5296;51.060;13.750;2022-12-11T07:38:06;10.57;;;8.57;;
10497;SDS011;5296;51.060;13.750;2022-12-11T07:43:08;11.30;;;8.60;;
10497;SDS011;5296;51.060;13.750;2022-12-11T07:48:10;12.37;;;9.07;;
10497;SDS011;5296;51.060;13.750;2022-12-11T07:53:12;11.63;;;8.70;;
10497;SDS011;5296;51.060;13.750;2022-12-11T07:58:14;10.87;;;8.00;;
10497;SDS011;5296;51.060;13.750;2022-12-11T08:03:16;12.07;;;8.60;;
10497;SDS011;5296;51.060;13.750;2022-12-11T08:08:18;10.73;;;8.07;;
10497;SDS011;5296;51.060;13.750;2022-12-11T08:13:20;11.67;;;8.00;;
10497;SDS011;5296;51.060;13.750;2022-12-11T08:18:21;11.73;;;8.40;;
10497;SDS011;5296;51.060;13.750;2022-12-11T08:23:23;11.23;;;8.40;;
10497;SDS011;5296;51.060;13.750;2022-12-11T08:28:24;12.10;;;8.20;;
10497;SDS011;5296;51.060;13.750;2022-12-11T08:33:27;10.07;;;7.90;;
10497;SDS011;5296;51.060;13.750;2022-12-11T08:38:29;11.77;;;8.70;;
10497;SDS011;5296;51.060;13.750;2022-12-11T08:43:32;11.20;;;9.03;;
10497;SDS011;5296;51.060;13.750;2022-12-11T08:48:34;10.83;;;8.37;;
10497;SDS011;5296;51.060;13.750;2022-12-11T08:53:39;11.53;;;8.77;;
10497;SDS011;5296;51.060;13.750;2022-12-11T08:58:41;11.43;;;8.37;;
10497;SDS011;5296;51.060;13.750;2022-12-11T09:03:43;12.60;;;9.20;;
10497;SDS011;5296;51.060;13.750;2022-12-11T09:08:45;12.00;;;9.23;;
10497;SDS011;5296;51.060;13.750;2022-12-11T09:13:53;11.63;;;9.27;;
10497;SDS011;5296;51.060;13.750;2022-12-11T09:18:55;11.33;;;8.67;;
10497;SDS011;5296;51.060;13.750;2022-12-11T09:23:59;10.80;;;8.13;;
10497;SDS011;5296;51.060;13.750;2022-12-11T09:29:02;12.00;;;8.40;;
10497;SDS011;5296;51.060;13.750;2022-12-11T09:34:05;11.50;;;8.80;;
10497;SDS011;5296;51.060;13.750;2022-12-11T09:39:09;11.63;;;8.73;;
10497;SDS011;5296;51.060;13.750;2022-12-11T09:49:26;12.27;;;8.33;;
10497;SDS011;5296;51.060;13.750;2022-12-11T09:54:32;12.30;;;9.23;;
10497;SDS011;5296;51.060;13.750;2022-12-11T09:59:38;13.60;;;10.03;;
10497;SDS011;5296;51.060;13.750;2022-12-11T10:20:43;11.77;;;8.70;;
10497;SDS011;5296;51.060;13.750;2022-12-11T10:26:01;12.60;;;8.80;;
10497;SDS011;5296;51.060;13.750;2022-12-11T10:31:16;13.77;;;8.67;;
10497;SDS011;5296;51.060;13.750;2022-12-11T10:36:19;11.77;;;8.90;;
10497;SDS011;5296;51.060;13.750;2022-12-11T10:41:38;11.97;;;8.77;;
10497;SDS011;5296;51.060;13.750;2022-12-11T10:46:42;11.13;;;8.60;;
10497;SDS011;5296;51.060;13.750;2022-12-11T10:51:44;11.47;;;8.53;;
10497;SDS011;5296;51.060;13.750;2022-12-11T10:56:46;10.97;;;8.43;;
10497;SDS011;5296;51.060;13.750;2022-12-11T11:01:48;10.70;;;8.17;;
10497;SDS011;5296;51.060;13.750;2022-12-11T11:07:00;12.47;;;8.70;;
10497;SDS011;5296;51.060;13.750;2022-12-11T11:12:20;9.90;;;7.70;;
10497;SDS011;5296;51.060;13.750;2022-12-11T11:17:22;9.40;;;7.57;;
10497;SDS011;5296;51.060;13.750;2022-12-11T11:22:24;12.03;;;8.03;;
10497;SDS011;5296;51.060;13.750;2022-12-11T11:27:33;12.03;;;9.07;;
10497;SDS011;5296;51.060;13.750;2022-12-11T11:32:37;12.03;;;8.90;;
10497;SDS011;5296;51.060;13.750;2022-12-11T11:37:40;12.97;;;9.20;;
10497;SDS011;5296;51.060;13.750;2022-12-11T11:42:51;13.23;;;8.60;;
10497;SDS011;5296;51.060;13.750;2022-12-11T11:48:19;11.70;;;9.40;;
10497;SDS011;5296;51.060;13.750;2022-12-11T11:53:32;13.57;;;8.03;;
10497;SDS011;5296;51.060;13.750;2022-12-11T11:58:39;11.03;;;8.30;;
10497;SDS011;5296;51.060;13.750;2022-12-11T12:03:45;11.90;;;9.23;;
10497;SDS011;5296;51.060;13.750;2022-12-11T12:08:59;12.50;;;9.60;;
10497;SDS011;5296;51.060;13.750;2022-12-11T12:14:20;12.47;;;9.83;;
10497;SDS011;5296;51.060;13.750;2022-12-11T12:19:49;15.67;;;9.93;;
10497;SDS011;5296;51.060;13.750;2022-12-11T12:25:04;12.00;;;9.57;;
10497;SDS011;5296;51.060;13.750;2022-12-11T12:30:15;13.23;;;9.27;;
10497;SDS011;5296;51.060;13.750;2022-12-11T12:35:29;12.23;;;9.63;;
10497;SDS011;5296;51.060;13.750;2022-12-11T12:41:19;13.60;;;9.43;;
10497;SDS011;5296;51.060;13.750;2022-12-11T12:51:28;11.13;;;8.67;;
10497;SDS011;5296;51.060;13.750;2022-12-11T12:56:30;10.40;;;8.30;;
10497;SDS011;5296;51.060;13.750;2022-12-11T13:01:33;13.03;;;9.17;;
10497;SDS011;5296;51.060;13.750;2022-12-11T13:06:35;11.23;;;8.87;;
10497;SDS011;5296;51.060;13.750;2022-12-11T13:11:38;11.63;;;9.30;;
10497;SDS011;5296;51.060;13.750;2022-12-11T13:16:41;11.30;;;8.63;;
10497;SDS011;5296;51.060;13.750;2022-12-11T13:21:53;14.60;;;10.20;;
10497;SDS011;5296;51.060;13.750;2022-12-11T13:27:08;12.10;;;8.97;;
10497;SDS011;5296;51.060;13.750;2022-12-11T13:42:43;12.63;;;10.13;;
10497;SDS011;5296;51.060;13.750;2022-12-11T13:47:47;11.77;;;9.30;;
10497;SDS011;5296;51.060;13.750;2022-12-11T13:52:53;10.87;;;8.43;;
10497;SDS011;5296;51.060;13.750;2022-12-11T13:57:55;11.70;;;9.20;;
10497;SDS011;5296;51.060;13.750;2022-12-11T14:02:58;12.60;;;8.70;;
10497;SDS011;5296;51.060;13.750;2022-12-11T14:08:05;11.30;;;9.07;;
10497;SDS011;5296;51.060;13.750;2022-12-11T14:13:16;11.97;;;9.23;;
10497;SDS011;5296;51.060;13.750;2022-12-11T14:18:23;13.37;;;9.07;;
10497;SDS011;5296;51.060;13.750;2022-12-11T14:23:27;11.00;;;9.37;;
10497;SDS011;5296;51.060;13.750;2022-12-11T14:28:37;11.93;;;9.20;;
10497;SDS011;5296;51.060;13.750;2022-12-11T14:33:46;12.93;;;10.07;;
10497;SDS011;5296;51.060;13.750;2022-12-11T14:38:53;13.70;;;10.93;;
10497;SDS011;5296;51.060;13.750;2022-12-11T14:43:57;12.40;;;9.47;;
10497;SDS011;5296;51.060;13.750;2022-12-11T14:49:01;13.00;;;9.73;;
10497;SDS011;5296;51.060;13.750;2022-12-11T14:54:06;13.97;;;10.63;;
10497;SDS011;5296;51.060;13.750;2022-12-11T14:59:21;13.67;;;10.33;;
10497;SDS011;5296;51.060;13.750;2022-12-11T15:04:31;14.63;;;9.87;;
10497;SDS011;5296;51.060;13.750;2022-12-11T15:14:39;11.87;;;9.10;;
10497;SDS011;5296;51.060;13.750;2022-12-11T15:19:46;12.47;;;9.53;;
10497;SDS011;5296;51.060;13.750;2022-12-11T15:24:51;14.03;;;9.47;;
10497;SDS011;5296;51.060;13.750;2022-12-11T15:29:54;14.00;;;9.93;;
10497;SDS011;5296;51.060;13.750;2022-12-11T15:34:57;12.73;;;9.63;;
10497;SDS011;5296;51.060;13.750;2022-12-11T15:40:00;13.23;;;9.63;;
10497;SDS011;5296;51.060;13.750;2022-12-11T15:45:04;12.30;;;9.60;;
10497;SDS011;5296;51.060;13.750;2022-12-11T15:55:19;11.83;;;9.67;;
10497;SDS011;5296;51.060;13.750;2022-12-11T16:00:22;13.17;;;10.30;;
10497;SDS011;5296;51.060;13.750;2022-12-11T16:05:25;13.27;;;9.87;;
10497;SDS011;5296;51.060;13.750;2022-12-11T16:10:27;14.27;;;10.60;;
10497;SDS011;5296;51.060;13.750;2022-12-11T16:15:28;12.20;;;9.90;;
10497;SDS011;5296;51.060;13.750;2022-12-11T16:20:30;13.63;;;10.80;;
10497;SDS011;5296;51.060;13.750;2022-12-11T16:25:32;13.53;;;10.67;;
10497;SDS011;5296;51.060;13.750;2022-12-11T16:30:35;13.20;;;10.73;;
10497;SDS011;5296;51.060;13.750;2022-12-11T16:35:37;15.30;;;11.37;;
10497;SDS011;5296;51.060;13.750;2022-12-11T16:40:38;14.10;;;10.97;;
10497;SDS011;5296;51.060;13.750;2022-12-11T16:45:42;14.17;;;10.30;;
10497;SDS011;5296;51.060;13.750;2022-12-11T16:50:44;13.57;;;10.60;;
10497;SDS011;5296;51.060;13.750;2022-12-11T16:55:46;12.10;;;9.70;;
10497;SDS011;5296;51.060;13.750;2022-12-11T17:00:47;14.50;;;10.60;;
10497;SDS011;5296;51.060;13.750;2022-12-11T17:05:49;14.07;;;10.43;;
10497;SDS011;5296;51.060;13.750;2022-12-11T17:10:51;14.50;;;11.00;;
10497;SDS011;5296;51.060;13.750;2022-12-11T17:15:53;15.80;;;10.60;;
10497;SDS011;5296;51.060;13.750;2022-12-11T17:20:54;15.43;;;11.40;;
10497;SDS011;5296;51.060;13.750;2022-12-11T17:25:56;13.30;;;10.93;;
10497;SDS011;5296;51.060;13.750;2022-12-11T17:30:58;14.83;;;11.13;;
10497;SDS011;5296;51.060;13.750;2022-12-11T17:36:00;14.57;;;10.27;;
10497;SDS011;5296;51.060;13.750;2022-12-11T17:41:05;13.93;;;10.43;;
10497;SDS011;5296;51.060;13.750;2022-12-11T17:46:10;13.53;;;10.63;;
10497;SDS011;5296;51.060;13.750;2022-12-11T17:51:13;13.63;;;10.17;;
10497;SDS011;5296;51.060;13.750;2022-12-11T17:56:21;12.50;;;9.83;;
10497;SDS011;5296;51.060;13.750;2022-12-11T18:01:24;13.47;;;10.87;;
10497;SDS011;5296;51.060;13.750;2022-12-11T18:06:26;13.73;;;10.53;;
10497;SDS011;5296;51.060;13.750;2022-12-11T18:11:28;15.77;;;11.40;;
10497;SDS011;5296;51.060;13.750;2022-12-11T18:16:32;15.17;;;10.33;;
10497;SDS011;5296;51.060;13.750;2022-12-11T18:21:35;13.93;;;11.13;;
10497;SDS011;5296;51.060;13.750;2022-12-11T18:26:40;16.00;;;11.80;;
10497;SDS011;5296;51.060;13.750;2022-12-11T18:31:45;15.53;;;11.53;;
10497;SDS011;5296;51.060;13.750;2022-12-11T18:36:46;14.57;;;10.97;;
10497;SDS011;5296;51.060;13.750;2022-12-11T18:41:48;13.63;;;10.90;;
10497;SDS011;5296;51.060;13.750;2022-12-11T18:47:10;16.73;;;11.50;;
10497;SDS011;5296;51.060;13.750;2022-12-11T18:52:12;16.13;;;12.70;;
10497;SDS011;5296;51.060;13.750;2022-12-11T18:57:14;15.77;;;12.07;;
10497;SDS011;5296;51.060;13.750;2022-12-11T19:02:16;15.13;;;11.30;;
10497;SDS011;5296;51.060;13.750;2022-12-11T19:07:18;15.30;;;11.23;;
10497;SDS011;5296;51.060;13.750;2022-12-11T19:12:19;14.33;;;11.73;;
10497;SDS011;5296;51.060;13.750;2022-12-11T19:17:21;16.43;;;11.23;;
10497;SDS011;5296;51.060;13.750;2022-12-11T19:22:22;15.00;;;11.67;;
10497;SDS011;5296;51.060;13.750;2022-12-11T19:27:24;16.37;;;11.37;;
10497;SDS011;5296;51.060;13.750;2022-12-11T19:32:26;14.60;;;11.50;;
10497;SDS011;5296;51.060;13.750;2022-12-11T19:37:35;15.20;;;11.50;;
10497;SDS011;5296;51.060;13.750;2022-12-11T19:42:37;14.37;;;10.90;;
10497;SDS011;5296;51.060;13.750;2022-12-11T19:47:39;15.40;;;11.80;;
10497;SDS011;5296;51.060;13.750;2022-12-11T19:52:40;16.03;;;12.73;;
10497;SDS011;5296;51.060;13.750;2022-12-11T19:57:46;14.80;;;11.77;;
10497;SDS011;5296;51.060;13.750;2022-12-11T20:02:48;15.93;;;11.83;;
10497;SDS011;5296;51.060;13.750;2022-12-11T20:07:50;16.53;;;10.70;;
10497;SDS011;5296;51.060;13.750;2022-12-11T20:12:52;14.70;;;10.93;;
10497;SDS011;5296;51.060;13.750;2022-12-11T20:17:57;14.67;;;11.20;;
10497;SDS011;5296;51.060;13.750;2022-12-11T20:22:59;15.67;;;11.73;;
10497;SDS011;5296;51.060;13.750;2022-12-11T20:28:01;16.70;;;11.77;;
10497;SDS011;5296;51.060;13.750;2022-12-11T20:33:07;16.23;;;11.70;;
10497;SDS011;5296;51.060;13.750;2022-12-11T20:38:09;16.20;;;11.77;;
10497;SDS011;5296;51.060;13.750;2022-12-11T20:43:11;16.03;;;12.27;;
10497;SDS011;5296;51.060;13.750;2022-12-11T20:48:12;15.83;;;11.40;;
10497;SDS011;5296;51.060;13.750;2022-12-11T20:53:14;14.33;;;10.73;;
10497;SDS011;5296;51.060;13.750;2022-12-11T20:58:16;18.63;;;12.87;;
10497;SDS011;5296;51.060;13.750;2022-12-11T21:03:18;15.93;;;11.40;;
10497;SDS011;5296;51.060;13.750;2022-12-11T21:08:19;17.93;;;12.60;;
10497;SDS011;5296;51.060;13.750;2022-12-11T21:13:21;16.17;;;11.97;;
10497;SDS011;5296;51.060;13.750;2022-12-11T21:18:23;14.93;;;11.50;;
10497;SDS011;5296;51.060;13.750;2022-12-11T21:23:24;18.53;;;12.37;;
10497;SDS011;5296;51.060;13.750;2022-12-11T21:28:26;15.93;;;12.47;;
10497;SDS011;5296;51.060;13.750;2022-12-11T21:33:35;15.17;;;10.73;;
10497;SDS011;5296;51.060;13.750;2022-12-11T21:38:37;17.50;;;12.90;;
10497;SDS011;5296;51.060;13.750;2022-12-11T21:43:40;17.20;;;12.47;;
10497;SDS011;5296;51.060;13.750;2022-12-11T21:49:02;17.20;;;12.17;;
10497;SDS011;5296;51.060;13.750;2022-12-11T21:54:04;16.60;;;11.90;;
10497;SDS011;5296;51.060;13.750;2022-12-11T21:59:07;17.33;;;12.27;;
10497;SDS011;5296;51.060;13.750;2022-12-11T22:04:09;17.00;;;11.97;;
10497;SDS011;5296;51.060;13.750;2022-12-11T22:09:12;17.07;;;11.80;;
10497;SDS011;5296;51.060;13.750;2022-12-11T22:14:15;18.30;;;12.60;;
10497;SDS011;5296;51.060;13.750;2022-12-11T22:19:17;16.27;;;11.93;;
10497;SDS011;5296;51.060;13.750;2022-12-11T22:24:19;16.50;;;12.00;;
10497;SDS011;5296;51.060;13.750;2022-12-11T22:29:20;15.10;;;12.10;;
10497;SDS011;5296;51.060;13.750;2022-12-11T22:34:22;16.37;;;11.70;;
10497;SDS011;5296;51.060;13.750;2022-12-11T22:39:24;16.80;;;12.43;;
10497;SDS011;5296;51.060;13.750;2022-12-11T22:44:25;18.30;;;12.60;;
10497;SDS011;5296;51.060;13.750;2022-12-11T22:49:27;17.70;;;12.50;;
10497;SDS011;5296;51.060;13.750;2022-12-11T22:54:29;18.50;;;13.13;;
10497;SDS011;5296;51.060;13.750;2022-12-11T22:59:31;18.83;;;13.50;;
10497;SDS011;5296;51.060;13.750;2022-12-11T23:04:33;17.30;;;12.73;;
10497;SDS011;5296;51.060;13.750;2022-12-11T23:09:34;19.17;;;12.70;;
10497;SDS011;5296;51.060;13.750;2022-12-11T23:14:37;18.93;;;13.07;;
10497;SDS011;5296;51.060;13.750;2022-12-11T23:19:39;17.20;;;13.20;;
10497;SDS011;5296;51.060;13.750;2022-12-11T23:24:41;19.13;;;13.10;;
10497;SDS011;5296;51.060;13.750;2022-12-11T23:29:42;18.73;;;12.50;;
10497;SDS011;5296;51.060;13.750;2022-12-11T23:34:44;18.33;;;12.23;;
10497;SDS011;5296;51.060;13.750;2022-12-11T23:39:46;17.00;;;13.00;;
10497;SDS011;5296;51.060;13.750;2022-12-11T23:44:47;17.73;;;12.40;;
10497;SDS011;5296;51.060;13.750;2022-12-11T23:49:49;17.93;;;13.00;;
10497;SDS011;5296;51.060;13.750;2022-12-11T23:54:52;17.90;;;12.30;;
10497;SDS011;5296;51.060;13.750;2022-12-11T23:59:56;16.90;;;12.57;;
